Time;durP1;ratioP1;P1;durP2;ratioP2;P2;SDS_P1;SDS_P2;PMS_P1;PMS_P2;Temp;Humidity;BMP_temperature;BMP_pressure;BME280_temperature;BME280_humidity;BME280_pressure;Samples;Min_cycle;Max_cycle;Signal;HPM_P1;HPM_P2
2022/12/14 00:00:11;;;;;;;22.40;12.70;;;;;;;-10.63;88.36;96255.15;105280;1301;25999;-76
2022/12/14 00:03:00;;;;;;;27.40;13.40;;;;;;;-10.69;87.69;96246.23;105208;1303;22470;-76
2022/12/14 00:05:29;;;;;;;31.50;15.00;;;;;;;-10.90;87.13;96244.95;105237;1304;22785;-76
2022/12/14 00:07:57;;;;;;;34.90;16.40;;;;;;;-11.06;87.16;96246.69;104246;1295;1342765;-76
2022/12/14 00:10:26;;;;;;;39.30;18.50;;;;;;;-11.20;87.20;96251.73;105162;1309;27424;-76
2022/12/14 00:12:55;;;;;;;29.10;13.70;;;;;;;-11.26;87.37;96249.40;105222;1306;22513;-76
2022/12/14 00:15:23;;;;;;;27.70;14.40;;;;;;;-11.24;87.70;96247.48;105252;1309;23133;-76
2022/12/14 00:17:52;;;;;;;30.90;16.10;;;;;;;-11.31;87.48;96247.36;105194;1304;26021;-76
2022/12/14 00:20:22;;;;;;;28.00;13.50;;;;;;;-11.32;88.02;96239.56;105181;1306;39137;-77
2022/12/14 00:22:51;;;;;;;27.20;13.50;;;;;;;-11.19;88.38;96240.68;105237;1294;22543;-76
2022/12/14 00:25:19;;;;;;;23.90;11.90;;;;;;;-11.22;88.04;96236.23;105246;1303;25271;-76
2022/12/14 00:27:50;;;;;;;22.60;12.50;;;;;;;-11.29;88.01;96236.19;105215;1291;25210;-76
2022/12/14 00:30:20;;;;;;;23.10;11.80;;;;;;;-11.27;88.07;96238.23;105178;1284;22436;-77
2022/12/14 00:32:49;;;;;;;25.60;13.90;;;;;;;-11.25;87.97;96238.20;105230;1287;22471;-76
2022/12/14 00:35:18;;;;;;;30.00;15.10;;;;;;;-11.24;87.94;96239.67;105247;1305;22466;-76
2022/12/14 00:37:46;;;;;;;27.40;13.70;;;;;;;-11.19;88.12;96238.42;105271;1287;23779;-76
2022/12/14 00:40:14;;;;;;;27.30;12.30;;;;;;;-11.19;87.98;96235.75;105197;1304;24254;-76
2022/12/14 00:42:43;;;;;;;29.50;14.10;;;;;;;-11.24;87.84;96240.34;105230;1304;22775;-76
2022/12/14 00:45:13;;;;;;;31.50;15.30;;;;;;;-11.29;87.88;96236.40;105212;1302;23243;-76
2022/12/14 00:47:42;;;;;;;32.70;15.70;;;;;;;-11.31;88.06;96237.42;105228;1304;24268;-76
2022/12/14 00:50:10;;;;;;;34.90;17.00;;;;;;;-11.28;88.43;96236.92;105168;1293;22481;-76
2022/12/14 00:52:39;;;;;;;27.90;14.40;;;;;;;-11.25;88.33;96237.69;105189;1294;22457;-77
2022/12/14 00:55:08;;;;;;;21.60;10.80;;;;;;;-11.27;88.15;96236.18;105202;1276;22475;-76
2022/12/14 00:57:37;;;;;;;14.20;7.90;;;;;;;-11.26;88.74;96233.06;105238;1287;24403;-76
2022/12/14 01:00:08;;;;;;;14.90;9.20;;;;;;;-11.16;89.01;96225.50;105205;1304;24240;-77
2022/12/14 01:02:38;;;;;;;17.70;9.30;;;;;;;-11.05;89.23;96227.89;105207;1305;22481;-77
2022/12/14 01:05:08;;;;;;;16.40;6.10;;;;;;;-10.94;89.44;96226.95;105330;1287;25261;-77
2022/12/14 01:07:37;;;;;;;16.40;9.00;;;;;;;-10.91;89.63;96226.39;105240;1303;23866;-77
2022/12/14 01:10:07;;;;;;;20.80;10.50;;;;;;;-10.89;89.52;96226.10;105167;1301;23238;-77
2022/12/14 01:12:36;;;;;;;17.50;10.30;;;;;;;-10.95;88.93;96229.19;105244;1304;22777;-77
2022/12/14 01:15:06;;;;;;;18.30;10.70;;;;;;;-10.94;89.11;96232.17;105239;1304;22471;-77
2022/12/14 01:17:33;;;;;;;;;;;;;;;-10.95;88.86;96229.95;105229;1294;23651;-77
2022/12/14 01:20:03;;;;;;;17.90;10.70;;;;;;;-10.99;88.57;96229.48;105151;1303;25465;-77
2022/12/14 01:22:31;;;;;;;20.00;11.10;;;;;;;-11.04;88.30;96225.85;105221;1294;22462;-77
2022/12/14 01:25:00;;;;;;;19.40;11.20;;;;;;;-11.10;88.22;96224.23;105212;1303;22456;-77
2022/12/14 01:27:28;;;;;;;20.50;11.50;;;;;;;-11.18;87.81;96221.98;105222;1305;24259;-77
2022/12/14 01:29:57;;;;;;;19.60;10.30;;;;;;;-11.20;88.00;96223.26;105170;1304;25074;-77
2022/12/14 01:32:25;;;;;;;20.20;10.70;;;;;;;-11.20;88.14;96222.38;105225;1297;23831;-77
2022/12/14 01:34:53;;;;;;;19.40;10.20;;;;;;;-11.17;88.35;96217.12;105214;1302;22468;-77
2022/12/14 01:37:22;;;;;;;20.00;11.40;;;;;;;-11.15;88.30;96216.39;105259;1297;25292;-77
2022/12/14 01:39:50;;;;;;;22.00;11.70;;;;;;;-11.21;88.22;96214.48;105147;1285;23799;-78
2022/12/14 01:42:19;;;;;;;20.70;12.70;;;;;;;-11.24;88.07;96210.48;105217;1302;27257;-76
2022/12/14 01:44:58;;;;;;;20.30;11.50;;;;;;;-11.23;87.89;96207.29;105227;1303;22457;-76
2022/12/14 01:47:41;;;;;;;20.20;12.00;;;;;;;-11.25;87.80;96208.04;105252;1288;25416;-75
2022/12/14 01:50:15;;;;;;;19.70;10.80;;;;;;;-11.31;87.69;96207.14;105123;1300;22464;-76
2022/12/14 01:52:46;;;;;;;20.20;11.20;;;;;;;-11.37;87.50;96206.54;105238;1289;24264;-75
2022/12/14 01:55:18;;;;;;;21.90;12.70;;;;;;;-11.49;87.35;96206.66;105212;1303;24253;-75
2022/12/14 01:57:54;;;;;;;26.60;13.40;;;;;;;-11.60;87.02;96207.08;105233;1302;26570;-75
2022/12/14 02:00:22;;;;;;;13.70;8.20;;;;;;;-11.70;86.93;96205.99;105175;1303;27909;-75
2022/12/14 02:02:56;;;;;;;25.80;12.10;;;;;;;-11.84;86.77;96202.18;105215;1286;22467;-75
2022/12/14 02:05:25;;;;;;;24.40;12.40;;;;;;;-11.92;86.88;96201.95;105217;1287;23831;-76
2022/12/14 02:07:55;;;;;;;16.10;8.50;;;;;;;-11.96;86.76;96196.84;105204;1302;22422;-75
2022/12/14 02:10:29;;;;;;;17.00;8.20;;;;;;;-12.05;87.02;96195.84;105194;1306;25592;-76
2022/12/14 02:13:03;;;;;;;26.60;15.30;;;;;;;-12.09;86.98;96195.70;105219;1303;23159;-75
2022/12/14 02:15:33;;;;;;;27.90;14.10;;;;;;;-12.06;87.15;96193.35;105202;1303;22506;-76
2022/12/14 02:18:05;;;;;;;27.20;15.70;;;;;;;-12.02;87.15;96191.42;105229;1303;22463;-76
2022/12/14 02:20:42;;;;;;;26.60;14.30;;;;;;;-11.98;87.01;96194.77;105214;1303;24253;-76
2022/12/14 02:23:41;;;;;;;23.70;12.30;;;;;;;-11.93;87.17;96199.08;105234;1302;22485;-76
2022/12/14 02:26:36;;;;;;;27.00;15.20;;;;;;;-11.88;86.97;96205.61;105232;1296;22448;-76
2022/12/14 02:29:31;;;;;;;22.70;13.30;;;;;;;-11.85;87.30;96204.44;105227;1303;23205;-77
2022/12/14 02:32:13;;;;;;;27.20;15.10;;;;;;;-11.82;87.16;96201.91;105227;1296;23713;-76
2022/12/14 02:34:54;;;;;;;28.10;13.20;;;;;;;-11.85;86.95;96198.85;105216;1281;25382;-76
2022/12/14 02:37:29;;;;;;;16.60;8.50;;;;;;;-12.02;86.52;96190.79;105244;1303;22465;-76
2022/12/14 02:40:11;;;;;;;23.10;11.40;;;;;;;-12.26;86.12;96178.73;105179;1291;24272;-77
2022/12/14 02:42:52;;;;;;;22.20;10.80;;;;;;;-12.37;86.18;96176.95;105220;1303;23849;-76
2022/12/14 02:45:31;;;;;;;20.80;11.40;;;;;;;-12.32;86.89;96174.09;105197;1302;22512;-76
2022/12/14 02:48:05;;;;;;;22.30;11.00;;;;;;;-12.09;87.78;96179.21;105229;1302;22582;-76
2022/12/14 02:50:43;;;;;;;16.60;9.10;;;;;;;-12.04;87.64;96175.80;105203;1303;25257;-77
2022/12/14 02:53:19;;;;;;;24.60;12.20;;;;;;;-12.02;87.45;96177.63;105227;1290;23352;-76
2022/12/14 02:55:50;;;;;;;24.80;11.60;;;;;;;-12.08;87.40;96182.13;105231;1287;22474;-76
2022/12/14 02:58:23;;;;;;;26.90;16.10;;;;;;;-12.15;87.02;96180.98;105202;1290;22565;-76
2022/12/14 03:00:55;;;;;;;30.20;15.70;;;;;;;-12.16;86.91;96184.16;105196;1288;26024;-76
2022/12/14 03:03:23;;;;;;;26.20;15.20;;;;;;;-12.11;86.72;96184.48;105216;1302;25443;-76
2022/12/14 03:05:59;;;;;;;28.50;14.20;;;;;;;-12.06;86.88;96179.55;105213;1301;22925;-76
2022/12/14 03:08:31;;;;;;;30.60;14.60;;;;;;;-12.04;86.74;96183.11;105216;1282;25789;-77
2022/12/14 03:11:03;;;;;;;19.20;9.50;;;;;;;-12.28;85.70;96179.70;105437;1304;26110;-76
2022/12/14 03:13:37;;;;;;;13.90;7.70;;;;;;;-12.38;86.20;96176.68;105470;1294;22475;-76
2022/12/14 03:16:12;;;;;;;26.30;13.80;;;;;;;-12.47;86.11;96177.78;105468;1279;22469;-76
2022/12/14 03:18:45;;;;;;;22.30;10.30;;;;;;;-12.53;86.08;96172.02;105446;1288;23728;-77
2022/12/14 03:21:17;;;;;;;24.90;10.90;;;;;;;-12.64;85.95;96172.17;105334;1299;22465;-76
2022/12/14 03:23:48;;;;;;;30.70;16.60;;;;;;;-12.70;86.27;96167.10;105527;1296;22493;-77
2022/12/14 03:26:21;;;;;;;32.30;16.60;;;;;;;-12.60;86.71;96164.14;105378;1287;22472;-77
2022/12/14 03:28:53;;;;;;;11.90;6.50;;;;;;;-12.58;86.73;96165.30;105415;1301;22482;-77
2022/12/14 03:31:29;;;;;;;24.00;11.10;;;;;;;-12.59;86.62;96163.88;105507;1301;22940;-77
2022/12/14 03:34:02;;;;;;;24.20;12.00;;;;;;;-12.65;86.46;96168.19;105500;1296;22500;-77
2022/12/14 03:36:37;;;;;;;22.60;12.00;;;;;;;-12.64;86.44;96170.16;105389;1303;22518;-77
2022/12/14 03:39:10;;;;;;;23.00;11.30;;;;;;;-12.64;86.53;96166.95;105393;1301;24246;-77
2022/12/14 03:41:47;;;;;;;27.90;15.40;;;;;;;-12.65;86.65;96167.55;105168;1303;30760;-77
2022/12/14 03:44:26;;;;;;;29.10;15.30;;;;;;;-12.53;86.96;96167.10;105224;1298;22463;-77
2022/12/14 03:47:01;;;;;;;26.50;14.20;;;;;;;-12.42;87.41;96165.38;105211;1297;22649;-77
2022/12/14 03:49:47;;;;;;;23.20;11.30;;;;;;;-12.30;87.44;96158.26;105192;1281;24080;-77
2022/12/14 03:52:24;;;;;;;17.10;9.10;;;;;;;-11.96;88.68;96151.00;105366;1288;22462;-77
2022/12/14 03:55:06;;;;;;;26.00;13.70;;;;;;;-11.73;88.37;96148.52;105453;1304;22506;-77
2022/12/14 03:57:47;;;;;;;23.50;13.20;;;;;;;-11.60;88.79;96147.58;105439;1303;25865;-77
2022/12/14 04:00:20;;;;;;;26.30;12.40;;;;;;;-11.45;88.93;96147.92;105407;1295;22466;-77
2022/12/14 04:02:53;;;;;;;23.40;11.40;;;;;;;-11.46;88.33;96148.05;105323;1303;22495;-77
2022/12/14 04:05:28;;;;;;;24.60;13.60;;;;;;;-11.48;88.20;96146.52;105465;1302;23808;-77
2022/12/14 04:08:04;;;;;;;24.60;12.20;;;;;;;-11.44;87.84;96144.89;105490;1303;22481;-77
2022/12/14 04:19:19;;;;;;;22.50;11.60;;;;;;;-11.37;88.01;96128.75;105475;1286;25406;-77
2022/12/14 04:21:51;;;;;;;22.30;10.60;;;;;;;-11.25;88.42;96121.73;105439;1278;23783;-78
2022/12/14 04:27:19;;;;;;;15.40;8.20;;;;;;;-11.04;88.42;96113.11;105391;1295;22508;-77
2022/12/14 04:29:56;;;;;;;23.40;11.60;;;;;;;-11.06;88.18;96115.73;105374;1303;22720;-77
2022/12/14 04:32:29;;;;;;;20.50;11.00;;;;;;;-11.06;88.24;96120.09;105444;1304;22542;-77
2022/12/14 04:35:04;;;;;;;18.10;9.70;;;;;;;-11.00;88.38;96123.06;105268;1295;22894;-77
2022/12/14 04:37:36;;;;;;;21.30;11.30;;;;;;;-10.94;88.45;96119.25;105345;1303;22497;-77
2022/12/14 04:40:12;;;;;;;21.30;10.70;;;;;;;-10.87;88.54;96122.27;105458;1288;25322;-78
2022/12/14 04:42:45;;;;;;;16.00;7.30;;;;;;;-10.76;88.62;96120.14;105403;1303;22473;-77
2022/12/14 04:45:19;;;;;;;21.00;9.90;;;;;;;-10.58;88.98;96120.84;105364;1302;24259;-77
2022/12/14 04:47:59;;;;;;;19.30;10.70;;;;;;;-10.47;88.87;96115.23;105402;1291;25374;-77
2022/12/14 04:50:33;;;;;;;17.10;9.50;;;;;;;-10.48;88.61;96110.14;105280;1288;22470;-77
2022/12/14 04:53:09;;;;;;;19.30;10.90;;;;;;;-10.55;88.14;96105.41;105482;1294;22458;-77
2022/12/14 04:55:45;;;;;;;22.30;11.40;;;;;;;-10.56;88.18;96103.02;105468;1294;25375;-77
2022/12/14 04:58:21;;;;;;;24.60;12.60;;;;;;;-10.60;88.01;96101.65;105497;1303;22476;-77
2022/12/14 05:01:05;;;;;;;20.00;10.50;;;;;;;-10.59;87.90;96099.92;105460;1296;26418;-77
2022/12/14 05:03:37;;;;;;;20.20;11.30;;;;;;;-10.56;87.82;96102.33;105504;1304;22494;-77
2022/12/14 05:06:13;;;;;;;20.10;11.20;;;;;;;-10.55;88.01;96097.73;105327;1303;22496;-77
2022/12/14 05:09:13;;;;;;;23.20;12.80;;;;;;;-10.55;87.81;96086.97;105469;1303;22475;-77
2022/12/14 05:11:46;;;;;;;23.00;11.40;;;;;;;-10.59;87.65;96081.98;105578;1303;23828;-77
2022/12/14 05:14:20;;;;;;;24.10;13.50;;;;;;;-10.65;87.70;96079.67;105317;1292;25414;-77
2022/12/14 05:16:49;;;;;;;27.90;13.80;;;;;;;-10.66;87.54;96071.95;105491;1295;22616;-77
2022/12/14 05:19:18;;;;;;;23.30;12.40;;;;;;;-10.71;87.22;96065.52;105498;1303;24245;-77
2022/12/14 05:21:46;;;;;;;23.50;13.00;;;;;;;-10.69;87.33;96062.09;105547;1288;24034;-78
2022/12/14 05:24:17;;;;;;;21.30;13.10;;;;;;;-10.66;87.38;96060.73;105550;1303;22888;-78
2022/12/14 05:26:45;;;;;;;26.00;14.40;;;;;;;-10.66;87.22;96059.83;105472;1281;22482;-78
2022/12/14 05:29:15;;;;;;;24.70;13.00;;;;;;;-10.67;87.28;96062.87;105483;1286;27682;-78
2022/12/14 05:31:43;;;;;;;;;;;;;;;-10.66;87.19;96061.55;105556;1295;24270;-78
2022/12/14 05:34:11;;;;;;;26.40;14.90;;;;;;;-10.76;86.80;96063.30;105512;1281;24247;-77
2022/12/14 05:36:40;;;;;;;31.60;15.00;;;;;;;-10.90;86.67;96061.27;105408;1302;25325;-77
2022/12/14 05:39:08;;;;;;;25.60;13.00;;;;;;;-10.97;86.46;96061.15;105548;1279;22467;-77
2022/12/14 05:41:37;;;;;;;27.80;14.50;;;;;;;-10.97;86.70;96058.80;105456;1296;22457;-77
2022/12/14 05:44:05;;;;;;;25.50;13.90;;;;;;;-10.94;86.82;96063.80;105412;1302;22950;-77
2022/12/14 05:46:34;;;;;;;22.40;12.90;;;;;;;-10.92;86.83;96062.24;105567;1291;22465;-77
2022/12/14 05:49:02;;;;;;;26.50;14.00;;;;;;;-10.88;86.96;96057.30;105440;1303;22464;-77
2022/12/14 05:51:31;;;;;;;29.10;14.90;;;;;;;-10.85;87.03;96060.23;105290;1296;22484;-77
2022/12/14 05:53:59;;;;;;;25.00;14.20;;;;;;;-10.91;86.85;96058.02;105300;1303;22462;-77
2022/12/14 05:56:28;;;;;;;23.70;13.40;;;;;;;-10.95;86.72;96062.33;105335;1297;25240;-77
2022/12/14 05:58:56;;;;;;;28.10;15.00;;;;;;;-10.91;86.91;96070.61;105257;1290;24976;-77
2022/12/14 06:01:25;;;;;;;27.80;14.70;;;;;;;-10.80;87.43;96067.59;105215;1300;25227;-77
2022/12/14 06:03:54;;;;;;;28.80;13.70;;;;;;;-10.72;87.35;96066.71;105334;1302;22476;-77
2022/12/14 06:06:22;;;;;;;28.50;14.60;;;;;;;-10.68;87.42;96067.89;105294;1297;24366;-77
2022/12/14 06:08:51;;;;;;;25.20;13.60;;;;;;;-10.65;87.44;96068.43;105254;1302;24505;-77
2022/12/14 06:11:23;;;;;;;31.60;14.20;;;;;;;-10.68;87.27;96067.25;105251;1302;27416;-77
2022/12/14 06:13:52;;;;;;;27.60;14.50;;;;;;;-10.75;86.97;96069.39;105299;1302;22486;-77
2022/12/14 06:16:22;;;;;;;30.10;14.60;;;;;;;-10.80;87.23;96069.96;105332;1289;23455;-77
2022/12/14 06:18:52;;;;;;;33.80;17.10;;;;;;;-10.81;87.42;96064.05;105264;1281;27004;-77
2022/12/14 06:21:25;;;;;;;29.90;16.50;;;;;;;-10.79;87.13;96058.83;105280;1302;22474;-77
2022/12/14 06:23:55;;;;;;;30.60;16.40;;;;;;;-10.78;87.27;96058.51;105291;1302;23755;-77
2022/12/14 06:26:25;;;;;;;32.30;17.20;;;;;;;-10.78;87.06;96058.15;105300;1279;23022;-77
2022/12/14 06:28:54;;;;;;;31.90;16.00;;;;;;;-10.78;87.12;96064.14;105232;1291;22481;-77
2022/12/14 06:31:24;;;;;;;28.60;15.60;;;;;;;-10.75;87.28;96060.42;105245;1288;23562;-77
2022/12/14 06:33:53;;;;;;;33.40;17.00;;;;;;;-10.69;87.46;96057.29;105304;1301;22476;-77
2022/12/14 06:36:25;;;;;;;32.30;16.70;;;;;;;-10.64;87.36;96055.77;105308;1302;22497;-77
2022/12/14 06:38:55;;;;;;;30.40;17.30;;;;;;;-10.61;86.99;96054.41;105395;1288;22596;-77
2022/12/14 06:41:24;;;;;;;34.40;16.80;;;;;;;-10.60;86.97;96054.40;105234;1303;25313;-77
2022/12/14 06:43:52;;;;;;;38.90;19.30;;;;;;;-10.56;87.18;96055.34;105276;1302;21949;-77
2022/12/14 06:46:23;;;;;;;32.10;17.40;;;;;;;-10.56;86.88;96049.86;105295;1297;25393;-77
2022/12/14 06:48:53;;;;;;;35.40;19.40;;;;;;;-10.53;87.07;96050.05;105321;1282;24440;-77
2022/12/14 06:51:23;;;;;;;37.70;19.40;;;;;;;-10.47;87.16;96040.73;105267;1280;23355;-77
2022/12/14 06:53:53;;;;;;;35.60;17.90;;;;;;;-10.44;87.03;96039.70;105267;1295;22472;-77
2022/12/14 06:56:23;;;;;;;35.90;19.50;;;;;;;-10.43;86.90;96040.52;105303;1288;22793;-77
2022/12/14 06:58:54;;;;;;;38.40;19.10;;;;;;;-10.45;86.81;96039.67;105251;1302;22657;-77
2022/12/14 07:01:24;;;;;;;41.10;20.60;;;;;;;-10.47;86.50;96039.38;105263;1297;26543;-77
2022/12/14 07:03:55;;;;;;;37.80;19.70;;;;;;;-10.45;86.65;96040.18;105298;1297;22460;-77
2022/12/14 07:06:26;;;;;;;30.10;16.70;;;;;;;-10.41;86.64;96038.23;105333;1281;24255;-77
2022/12/14 07:08:56;;;;;;;38.60;20.20;;;;;;;-10.39;86.61;96035.96;105277;1281;24449;-77
2022/12/14 07:11:26;;;;;;;39.30;20.30;;;;;;;-10.35;86.76;96032.30;105253;1302;27946;-77
2022/12/14 07:13:55;;;;;;;41.40;20.10;;;;;;;-10.34;86.56;96029.13;105291;1290;24213;-77
2022/12/14 07:16:27;;;;;;;37.60;19.40;;;;;;;-10.32;86.57;96028.61;105335;1296;22571;-77
2022/12/14 07:18:56;;;;;;;40.80;19.50;;;;;;;-10.32;86.27;96019.47;105296;1302;25246;-77
2022/12/14 07:21:26;;;;;;;38.10;19.70;;;;;;;-10.29;86.25;96024.84;105240;1302;22685;-77
2022/12/14 07:23:55;;;;;;;38.20;19.50;;;;;;;-10.25;86.46;96025.56;105339;1288;22468;-77
2022/12/14 07:26:26;;;;;;;43.30;22.50;;;;;;;-10.20;86.46;96028.75;105281;1302;22468;-78
2022/12/14 07:28:57;;;;;;;40.70;20.20;;;;;;;-10.17;86.28;96027.73;105264;1296;22473;-77
2022/12/14 07:31:27;;;;;;;34.10;14.20;;;;;;;-10.11;86.31;96020.18;105222;1297;24215;-77
2022/12/14 07:33:58;;;;;;;28.80;17.40;;;;;;;-10.07;86.25;96017.02;105274;1283;24356;-77
2022/12/14 07:36:27;;;;;;;31.30;15.80;;;;;;;-10.04;86.44;96005.41;105271;1296;22473;-77
2022/12/14 07:38:56;;;;;;;41.20;20.10;;;;;;;-9.99;86.41;96007.54;105266;1302;22731;-78
2022/12/14 07:41:29;;;;;;;37.80;18.30;;;;;;;-9.91;86.36;96009.44;105285;1288;25840;-77
2022/12/14 07:43:59;;;;;;;30.90;17.00;;;;;;;-9.85;85.99;96007.73;105332;1302;23643;-77
2022/12/14 07:46:30;;;;;;;35.80;17.10;;;;;;;-9.78;85.89;96002.34;105278;1299;22527;-77
2022/12/14 07:49:00;;;;;;;34.00;17.40;;;;;;;-9.77;85.58;96001.20;105298;1296;25334;-77
2022/12/14 07:51:28;;;;;;;;;;;;;;;-9.84;85.07;96006.63;105303;1302;27020;-77
2022/12/14 07:53:58;;;;;;;34.50;18.50;;;;;;;-9.89;84.90;95992.82;105298;1288;22514;-77
2022/12/14 07:56:28;;;;;;;33.60;17.00;;;;;;;-9.92;85.07;95997.27;105330;1288;22477;-77
2022/12/14 07:58:58;;;;;;;36.90;20.00;;;;;;;-9.97;84.84;95994.85;105339;1302;22683;-77
2022/12/14 08:01:29;;;;;;;34.70;18.10;;;;;;;-10.03;84.89;95993.52;105255;1287;24901;-77
2022/12/14 08:03:59;;;;;;;38.40;19.00;;;;;;;-10.04;84.87;95987.59;105285;1303;22455;-77
2022/12/14 08:06:29;;;;;;;36.20;19.00;;;;;;;-9.97;85.22;95991.80;105317;1302;22465;-77
2022/12/14 08:08:58;;;;;;;31.70;17.50;;;;;;;-9.84;85.44;95991.52;105296;1297;22463;-77
2022/12/14 08:11:27;;;;;;;23.10;12.00;;;;;;;-9.71;85.41;95992.24;105260;1302;25362;-77
2022/12/14 08:13:56;;;;;;;36.10;18.20;;;;;;;-9.64;85.36;95989.39;105296;1302;22471;-77
2022/12/14 08:16:25;;;;;;;32.00;17.60;;;;;;;-9.58;85.29;95989.41;105291;1296;22485;-78
2022/12/14 08:18:55;;;;;;;32.30;17.90;;;;;;;-9.49;85.12;95979.85;105286;1297;22464;-78
2022/12/14 08:21:23;;;;;;;;;;;;;;;-9.32;85.41;95976.61;105293;1281;22533;-78
2022/12/14 08:23:52;;;;;;;32.70;19.20;;;;;;;-9.13;85.46;95969.98;105266;1283;24259;-78
2022/12/14 08:26:21;;;;;;;30.30;17.10;;;;;;;-8.88;85.54;95971.31;105285;1291;22546;-78
2022/12/14 08:28:50;;;;;;;31.10;16.90;;;;;;;-8.62;85.56;95967.86;105239;1296;23095;-78
2022/12/14 08:31:21;;;;;;;34.00;16.80;;;;;;;-8.50;84.66;95959.58;105250;1302;25056;-78
2022/12/14 08:33:50;;;;;;;43.50;21.00;;;;;;;-8.65;83.40;95958.29;105281;1289;22517;-77
2022/12/14 08:36:21;;;;;;;37.90;19.90;;;;;;;-8.69;83.64;95954.64;105295;1288;22476;-78
2022/12/14 08:38:53;;;;;;;39.90;21.00;;;;;;;-8.59;84.03;95954.34;105298;1290;22477;-78
2022/12/14 08:41:22;;;;;;;37.10;19.70;;;;;;;-8.38;84.45;95950.71;105287;1295;22539;-78
2022/12/14 08:43:52;;;;;;;33.40;17.90;;;;;;;-8.25;83.92;95947.00;105309;1297;25917;-78
2022/12/14 08:46:22;;;;;;;35.00;20.20;;;;;;;-8.15;83.65;95942.16;105348;1301;22687;-78
2022/12/14 08:48:53;;;;;;;39.90;22.10;;;;;;;-8.14;83.20;95944.16;105264;1280;22465;-78
2022/12/14 08:51:23;;;;;;;37.50;20.70;;;;;;;-8.04;83.10;95942.13;105307;1303;25419;-78
2022/12/14 08:53:53;;;;;;;37.80;22.50;;;;;;;-7.92;82.79;95951.49;105338;1297;22512;-78
2022/12/14 08:56:23;;;;;;;35.60;19.60;;;;;;;-7.84;82.61;95954.98;105355;1281;22554;-78
2022/12/14 08:58:52;;;;;;;31.70;16.10;;;;;;;-7.78;82.11;95954.05;105251;1302;26323;-78
2022/12/14 09:01:22;;;;;;;37.50;18.90;;;;;;;-7.96;81.10;95959.17;105254;1302;22509;-78
2022/12/14 09:03:50;;;;;;;41.40;20.90;;;;;;;-8.06;80.77;95965.17;105294;1300;22483;-78
2022/12/14 09:06:21;;;;;;;36.50;17.60;;;;;;;-8.21;80.40;95965.53;105312;1297;22526;-78
2022/12/14 09:08:49;;;;;;;26.10;15.00;;;;;;;-8.34;80.41;95965.81;105276;1302;24039;-78
2022/12/14 09:11:19;;;;;;;44.40;23.20;;;;;;;-8.40;80.63;95958.30;105281;1281;22498;-78
2022/12/14 09:13:48;;;;;;;42.40;23.80;;;;;;;-8.46;80.84;95954.33;105284;1281;22657;-77
2022/12/14 09:16:19;;;;;;;44.10;23.80;;;;;;;-8.42;81.33;95950.84;105308;1300;22521;-78
2022/12/14 09:18:49;;;;;;;42.70;23.70;;;;;;;-8.34;81.40;95949.77;105282;1281;22469;-77
2022/12/14 09:21:17;;;;;;;40.60;21.70;;;;;;;-8.27;81.16;95951.16;105277;1283;23979;-77
2022/12/14 09:23:46;;;;;;;35.10;18.70;;;;;;;-8.23;81.08;95946.23;105233;1282;24277;-77
2022/12/14 09:26:17;;;;;;;40.40;18.50;;;;;;;-8.28;80.82;95944.23;105277;1289;22429;-77
2022/12/14 09:28:47;;;;;;;38.60;21.50;;;;;;;-8.37;80.57;95934.85;105269;1284;25383;-77
2022/12/14 09:31:18;;;;;;;36.50;19.60;;;;;;;-8.35;81.03;95940.77;105265;1302;22479;-77
2022/12/14 09:33:47;;;;;;;35.80;19.10;;;;;;;-8.22;81.07;95935.77;105326;1288;23973;-77
2022/12/14 09:36:17;;;;;;;32.70;18.70;;;;;;;-8.24;80.62;95934.84;105288;1290;24852;-77
2022/12/14 09:38:46;;;;;;;39.20;19.60;;;;;;;-8.22;80.99;95939.25;105249;1295;22479;-78
2022/12/14 09:41:31;;;;;;;41.90;21.70;;;;;;;-8.15;80.95;95941.02;105240;1302;24147;-77
2022/12/14 09:44:13;;;;;;;37.00;20.40;;;;;;;-8.11;81.21;95941.93;105270;1303;22699;-77
2022/12/14 09:46:52;;;;;;;41.40;23.00;;;;;;;-8.06;81.13;95937.33;105245;1298;24066;-77
2022/12/14 09:49:28;;;;;;;44.00;22.80;;;;;;;-8.02;81.14;95938.29;105274;1287;29922;-77
2022/12/14 09:52:01;;;;;;;46.60;25.60;;;;;;;-8.02;81.03;95942.24;105295;1273;22467;-77
2022/12/14 09:54:33;;;;;;;41.10;22.80;;;;;;;-8.00;81.20;95937.69;105260;1287;24390;-77
2022/12/14 09:57:08;;;;;;;39.80;22.20;;;;;;;-7.91;81.33;95932.71;105347;1296;22601;-77
2022/12/14 09:59:37;;;;;;;43.10;23.80;;;;;;;-7.83;81.40;95932.74;105265;1303;22466;-77
2022/12/14 10:02:21;;;;;;;45.20;23.70;;;;;;;-7.87;80.94;95923.66;105285;1302;39002;-77
2022/12/14 10:05:04;;;;;;;44.90;22.00;;;;;;;-8.04;80.55;95921.65;105286;1281;22922;-78
2022/12/14 10:07:40;;;;;;;48.80;25.90;;;;;;;-8.18;80.92;95920.05;105189;1284;24258;-77
2022/12/14 10:10:19;;;;;;;40.70;21.60;;;;;;;-8.23;81.54;95916.70;105253;1302;22514;-78
2022/12/14 10:12:58;;;;;;;48.50;26.50;;;;;;;-8.20;81.82;95910.16;105253;1283;25948;-77
2022/12/14 10:15:32;;;;;;;49.10;24.50;;;;;;;-8.15;81.97;95912.45;105317;1281;22468;-77
2022/12/14 10:18:19;;;;;;;54.40;25.60;;;;;;;-8.11;82.07;95907.08;105283;1302;22735;-77
2022/12/14 10:20:57;;;;;;;49.70;26.90;;;;;;;-8.07;82.18;95898.03;105211;1288;22513;-78
2022/12/14 10:23:26;;;;;;;59.20;28.90;;;;;;;-8.06;81.96;95902.19;105311;1302;24499;-77
2022/12/14 10:26:01;;;;;;;51.60;28.80;;;;;;;-8.03;82.12;95897.71;105309;1288;22446;-77
2022/12/14 10:28:40;;;;;;;52.00;25.90;;;;;;;-7.95;82.11;95884.95;105246;1302;25499;-78
2022/12/14 10:31:14;;;;;;;39.60;23.60;;;;;;;-7.81;82.44;95884.67;105284;1287;22494;-77
2022/12/14 10:33:45;;;;;;;47.50;25.40;;;;;;;-7.70;82.44;95890.45;105249;1302;22928;-77
2022/12/14 10:36:21;;;;;;;46.20;25.10;;;;;;;-7.65;82.11;95891.89;105305;1302;22487;-77
2022/12/14 10:38:57;;;;;;;43.50;20.90;;;;;;;-7.61;81.78;95889.89;105256;1287;26536;-78
2022/12/14 10:41:38;;;;;;;43.10;22.60;;;;;;;-7.64;81.32;95887.65;105220;1303;23964;-77
2022/12/14 10:44:19;;;;;;;45.80;26.30;;;;;;;-7.70;80.89;95892.16;105280;1283;24253;-78
2022/12/14 10:46:55;;;;;;;50.90;25.20;;;;;;;-7.71;81.53;95893.68;105293;1288;22487;-77
2022/12/14 10:49:31;;;;;;;41.40;24.50;;;;;;;-7.60;81.85;95890.75;105280;1302;22487;-78
2022/12/14 10:52:08;;;;;;;43.40;24.20;;;;;;;-7.46;82.09;95883.29;105256;1294;22492;-78
2022/12/14 10:54:44;;;;;;;40.70;23.00;;;;;;;-7.40;82.01;95871.70;105272;1287;22452;-78
2022/12/14 10:57:17;;;;;;;46.80;26.20;;;;;;;-7.34;81.92;95865.48;105314;1296;22486;-78
2022/12/14 10:59:47;;;;;;;38.70;22.90;;;;;;;-7.30;81.70;95868.24;105310;1281;24251;-78
2022/12/14 11:02:17;;;;;;;44.60;24.90;;;;;;;-7.32;81.46;95864.21;105295;1289;22482;-78
2022/12/14 11:04:50;;;;;;;34.00;18.70;;;;;;;-7.35;81.62;95860.52;105408;1296;25376;-78
2022/12/14 11:07:20;;;;;;;41.10;21.70;;;;;;;-7.35;81.62;95861.29;105578;1302;22488;-78
2022/12/14 11:09:49;;;;;;;42.40;22.40;;;;;;;-7.32;82.01;95861.24;105348;1302;24208;-77
2022/12/14 11:12:22;;;;;;;41.80;24.10;;;;;;;-7.29;81.86;95859.69;105297;1302;22485;-78
2022/12/14 11:15:02;;;;;;;41.50;23.80;;;;;;;-7.34;81.66;95859.09;105256;1290;22521;-77
2022/12/14 11:17:33;;;;;;;44.50;24.50;;;;;;;-7.43;81.45;95859.68;105304;1302;22493;-77
2022/12/14 11:20:18;;;;;;;44.80;25.10;;;;;;;-7.47;81.66;95855.52;105393;1286;22703;-78
2022/12/14 11:22:48;;;;;;;43.40;24.90;;;;;;;-7.37;82.07;95845.27;105413;1288;22471;-78
2022/12/14 11:25:34;;;;;;;44.40;24.30;;;;;;;-7.22;82.46;95841.20;105400;1284;22474;-78
2022/12/14 11:28:14;;;;;;;40.80;22.80;;;;;;;-7.04;82.46;95836.45;105536;1301;22522;-78
2022/12/14 11:30:53;;;;;;;27.30;14.50;;;;;;;-6.99;82.08;95829.96;105275;1282;25373;-78
2022/12/14 11:33:21;;;;;;;32.20;16.20;;;;;;;-7.09;81.48;95814.08;105328;1288;23659;-78
2022/12/14 11:35:53;;;;;;;34.40;15.10;;;;;;;-7.20;81.61;95818.59;105298;1302;24237;-78
2022/12/14 11:38:23;;;;;;;37.30;18.40;;;;;;;-7.26;81.50;95820.77;105300;1302;22525;-78
2022/12/14 11:40:51;;;;;;;;;;;;;;;-7.27;81.48;95812.41;105168;1302;22688;-78